Texas Logo

Cypress, TX Single Family Real Estate Listings

1630 Total Real Estate Listings * Click on table heading to sort
Date Posted Property Type Style Address Price Living Area Lot Size Price/Sq Ft.
2018-08-20 Single Family Traditional 12115 Cove Ridge Lane Cypress, TX 77433 $282,500 2,324 sq. ft. 6,534 sq. ft. $122
2018-08-20 Single Family Traditional 15907 Peach Bluff Ln Cypress, TX 77429 $224,900 2,691 sq. ft. 6,534 sq. ft. $84
2018-08-20 Single Family Traditional 20906 Refuge Creek Drive Cypress, TX 77433 $555,000 3,748 sq. ft. 21,780 sq. ft. $148
2018-08-20 Single Family Traditional 13207 Lake Mist Court Cypress, TX 77429 $309,900 3,512 sq. ft. 9,148 sq. ft. $88
2018-08-20 Single Family Traditional 8803 Windhaven Terrace Trail Cypress, TX 77433 $285,000 2,922 sq. ft. 9,583 sq. ft. $98
2018-08-20 Single Family Traditional 16014 Elmwood Manor Drive Cypress, TX 77429 $385,000 3,372 sq. ft. 8,276 sq. ft. $114
2018-08-20 Single Family Traditional 19106 West Josey Overlook Drive Cypress, TX 77433 $900,900 4,931 sq. ft. 16,988 sq. ft. $183
2018-08-20 Single Family Traditional 15211 Thompson Ridge Drive Cypress, TX 77429 $459,000 3,272 sq. ft. $140
2018-08-20 Single Family Ranch; Traditional 15206 Monarch Creek Lane Cypress, TX 77429 $230,000 2,178 sq. ft. 6,534 sq. ft. $106
2018-08-20 Single Family Traditional 15327 Patten Forest Cypress, TX 77429 $529,000 4,087 sq. ft. $129
2018-08-20 Single Family Traditional 18230 Fair Grange Lane Cypress, TX 77433 $190,000 2,660 sq. ft. 5,227 sq. ft. $71
2018-08-20 Single Family Contemporary/Modern 20318 Sedona Oaks Drive Cypress, TX 77433 $289,000 2,936 sq. ft. 11,326 sq. ft. $98
2018-08-20 Single Family Traditional 18514 Alemarble Oak Street Cypress, TX 77429 $170,000 2,371 sq. ft. 4,792 sq. ft. $72
2018-08-20 Single Family Traditional 14438 Pennland Lane Cypress, TX 77429 $240,000 3,558 sq. ft. 5,663 sq. ft. $67
2018-08-20 Single Family Contemporary/Modern 18327 Elizabeth Shore Cypress, TX 77433 $255,000 2,522 sq. ft. 6,970 sq. ft. $101
2018-08-20 Single Family Traditional 12802 Ravensong Drive Cypress, TX 77429 $249,700 2,393 sq. ft. 7,405 sq. ft. $104
2018-08-19 Single Family Traditional 8238 Almera Falls Drive Cypress, TX 77433 $179,999 1,565 sq. ft. 7,405 sq. ft. $115
2018-08-19 Single Family Ranch 15606 Eagle Valley Drive Cypress, TX 77429 $239,999 2,297 sq. ft. 6,098 sq. ft. $104
2018-08-18 Single Family Traditional 18919 Rushfield Glen Lane Cypress, TX 77429 $385,000 2,894 sq. ft. 13,068 sq. ft. $133
2018-08-18 Single Family Traditional 18606 Prince Ranch Drive Cypress, TX 77433 $315,000 2,950 sq. ft. 6,534 sq. ft. $107
2018-08-18 Single Family Traditional 19306 Tanglewood Trails Drive Cypress, TX 77433 $434,995 2,911 sq. ft. 8,712 sq. ft. $149
2018-08-18 Single Family Traditional 14410 Avery Brooke Lane Cypress, TX 77429 $165,000 1,634 sq. ft. 5,227 sq. ft. $101
2018-08-18 Single Family Contemporary/Modern; Traditional 17922 Lake Nocona Court Cypress, TX 77433 $569,000 4,706 sq. ft. 13,068 sq. ft. $121
2018-08-18 Single Family Traditional 19027 Sweet Springs Lane Cypress, TX 77429 $275,000 2,797 sq. ft. 7,405 sq. ft. $98
2018-08-17 Single Family Ranch; Traditional 14915 Grandbluff Court Cypress, TX 77429 $249,900 2,059 sq. ft. 13,068 sq. ft. $121
2018-08-17 Single Family Traditional 17107 Texas Lancer Drive Cypress, TX 77433 $552,138 3,936 sq. ft. $140
2018-08-17 Single Family Traditional 18163 Moonlit River Drive Cypress, TX 77433 $300,000 2,313 sq. ft. 4,792 sq. ft. $130
2018-08-17 Single Family Traditional 9134 Monarch Field Lane Cypress, TX 77433 $260,000 2,070 sq. ft. 6,098 sq. ft. $126
2018-08-17 Single Family Traditional 19818 Auburn Tree Drive Cypress, TX 77429 $269,000 2,860 sq. ft. 5,663 sq. ft. $94
2018-08-17 Single Family Traditional 19302 Val Verde Springs Court Cypress, TX 77433 $449,500 2,696 sq. ft. 9,148 sq. ft. $167
2018-08-17 Single Family Traditional 19411 Egret Haven Lane Cypress, TX 77433 $464,000 3,946 sq. ft. 11,326 sq. ft. $118
2018-08-17 Single Family Contemporary/Modern; Mediterranean 20214 Lago Bluff Loop Cypress, TX 77433 $350,486 2,822 sq. ft. 7,841 sq. ft. $124
2018-08-17 Single Family Other Style 10709 Deval Drive Cypress, TX 77429 $227,000 1,944 sq. ft. 23,522 sq. ft. $117
2018-08-17 Single Family Traditional 17902 Coffee Mill Lake Court Cypress, TX 77433 $620,000 4,684 sq. ft. 10,454 sq. ft. $132
2018-08-17 Single Family Traditional 18311 Water Mill Drive Cypress, TX 77429 $227,000 2,002 sq. ft. 6,098 sq. ft. $113
2018-08-17 Single Family Traditional 15615 Bluff Park Court Cypress, TX 77429 $249,900 1,901 sq. ft. 6,534 sq. ft. $131
2018-08-17 Single Family Traditional 13318 Misty Hills Drive Cypress, TX 77429 $326,900 3,119 sq. ft. 9,148 sq. ft. $105
2018-08-17 Single Family Traditional 14103 Spindle Arbor Road Cypress, TX 77429 $349,900 2,891 sq. ft. 11,326 sq. ft. $121
2018-08-17 Single Family Contemporary/Modern 20803 Twisted Leaf Drive Cypress, TX 77433 $369,999 3,556 sq. ft. 10,454 sq. ft. $104
2018-08-17 Single Family Traditional 16222 Duffton Street Cypress, TX 77429 $160,000 1,509 sq. ft. 11,761 sq. ft. $106
2018-08-17 Single Family Traditional 18638 Fairmont Springs Court Cypress, TX 77429 $339,990 2,815 sq. ft. $121
2018-08-17 Single Family Traditional 15506 Kensington Bluff Dr Cypress, TX 77429 $306,799 2,591 sq. ft. 6,970 sq. ft. $118
2018-08-17 Single Family Traditional 19723 Hubbard Creek Court Cypress, TX 77433 $355,000 3,696 sq. ft. 7,405 sq. ft. $96
2018-08-17 Single Family Traditional 14818 Maverick Valley Lane Cypress, TX 77429 $310,000 2,793 sq. ft. 8,276 sq. ft. $111
2018-08-17 Single Family Traditional 17106 Bobcat Trail Cypress, TX 77429 $580,000 2,931 sq. ft. 196,020 sq. ft. $198
2018-08-17 Single Family Traditional 16523 Cypress Brook Court Cypress, TX 77429 $299,900 3,116 sq. ft. 6,970 sq. ft. $96
2018-08-17 Single Family Traditional 15623 Tylermont Drive Cypress, TX 77429 $229,000 1,945 sq. ft. 6,098 sq. ft. $118
2018-08-17 Single Family Ranch; Traditional 14602 Bent Gulch Lane Cypress, TX 77429 $235,000 1,872 sq. ft. 9,148 sq. ft. $126
2018-08-17 Single Family Ranch 20410 Prospect Canyon Lane Cypress, TX 77433 $319,000 3,688 sq. ft. 6,534 sq. ft. $86
2018-08-17 Single Family Traditional 18207 Camellia Estates Lane Cypress, TX 77429 $220,000 2,076 sq. ft. 8,276 sq. ft. $106
2018-08-16 Single Family Traditional 18409 Cypress Church Road Cypress, TX 77433 $915,000 4,689 sq. ft. 155,509 sq. ft. $195
2018-08-16 Single Family Colonial 12611 Keepers Trail Cypress, TX 77429 $850,000 5,042 sq. ft. 74,488 sq. ft. $169
2018-08-16 Single Family Traditional 13618 Pegasus Road Cypress, TX 77429 $465,000 3,815 sq. ft. 16,117 sq. ft. $122
2018-08-16 Single Family Traditional 15327 Hillside Park Way Cypress, TX 77433 $203,000 1,921 sq. ft. 6,534 sq. ft. $106
2018-08-16 Single Family Traditional 13914 Rustic Hills Lane Cypress, TX 77429 $549,000 4,647 sq. ft. 12,197 sq. ft. $118
2018-08-16 Single Family Traditional 13411 Lakecrest Drive Cypress, TX 77429 $235,000 2,260 sq. ft. 9,583 sq. ft. $104
2018-08-16 Single Family Traditional 15138 Woodford Hollow Lane Cypress, TX 77429 $325,000 3,394 sq. ft. 8,712 sq. ft. $96
2018-08-16 Single Family Traditional 19702 Whistle Creek Lane Cypress, TX 77433 $264,900 2,851 sq. ft. 6,098 sq. ft. $93
2018-08-16 Single Family Traditional 11818 Trinity Bluff Lane Cypress, TX 77433 $395,000 3,856 sq. ft. 8,712 sq. ft. $102
2018-08-16 Single Family Contemporary/Modern 18515 Water Scene Trail Cypress, TX 77429 $268,114 3,435 sq. ft. 5,663 sq. ft. $78
2018-08-16 Single Family Traditional 7622 Shavano Lane Cypress, TX 77433 $250,000 3,712 sq. ft. 6,098 sq. ft. $67
2018-08-16 Single Family Traditional 9235 Holloway Cliff Lane Cypress, TX 77433 $337,000 3,152 sq. ft. 12,197 sq. ft. $107
2018-08-16 Single Family Traditional 15619 Mccearley Drive Cypress, TX 77429 $329,900 2,939 sq. ft. 41,818 sq. ft. $112
2018-08-16 Single Family Traditional 27323 Saxon Meadow Lane Cypress, TX 77433 $315,000 2,836 sq. ft. 10,019 sq. ft. $111
2018-08-16 Single Family Traditional 18635 Fairmont Springs Court Cypress, TX 77429 $407,940 3,601 sq. ft. $113
2018-08-16 Single Family Ranch 10510 Deval Drive Cypress, TX 77429 $210,000 1,433 sq. ft. 20,909 sq. ft. $147
2018-08-16 Single Family Traditional 18727 Cypress Lake Village Dr Drive Cypress, TX 77429 $339,000 4,065 sq. ft. 7,405 sq. ft. $83
2018-08-16 Single Family Traditional 14526 Stroman Drive Cypress, TX 77429 $275,000 2,224 sq. ft. 9,148 sq. ft. $124
2018-08-16 Single Family Traditional 19527 Mills Glen Drive Cypress, TX 77433 $315,000 3,058 sq. ft. 6,534 sq. ft. $103
2018-08-16 Single Family Traditional 18326 Laura Shore Drive Cypress, TX 77433 $325,000 2,596 sq. ft. 10,454 sq. ft. $125
2018-08-16 Single Family Ranch; Traditional 16523 Blue Shine Trail Cypress, TX 77433 $199,000 1,648 sq. ft. 6,098 sq. ft. $121
2018-08-15 Single Family Contemporary/Modern; Traditional 18610 White Ash Lane Cypress, TX 77433 $245,000 2,475 sq. ft. 5,227 sq. ft. $99
2018-08-15 Single Family Traditional 19714 Ridge Falls Court Cypress, TX 77433 $159,850 1,365 sq. ft. 6,534 sq. ft. $117
2018-08-15 Single Family Traditional 15106 Red Cedar Bluff Lane Cypress, TX 77433 $219,500 1,864 sq. ft. 6,534 sq. ft. $118
2018-08-15 Single Family Traditional 20815 Bristol Meadow Lane Cypress, TX 77433 $299,871 2,385 sq. ft. $126
2018-08-15 Single Family Traditional 20810 Bristol Meadow Lane Cypress, TX 77433 $269,948 2,377 sq. ft. $114
2018-08-15 Single Family Ranch 16111 Copper Gables Lane Cypress, TX 77429 $207,500 1,979 sq. ft. 6,534 sq. ft. $105
2018-08-15 Single Family Contemporary/Modern 15215 Freestone Peach Lane Cypress, TX 77433 $278,945 2,610 sq. ft. 8,276 sq. ft. $107
2018-08-15 Single Family Traditional 15402 Greenford Glen Drive Cypress, TX 77429 $299,576 2,204 sq. ft. $136
2018-08-15 Single Family Other Style; Traditional 16703 Seminole Ridge Drive Cypress, TX 77433 $402,540 2,793 sq. ft. 6,098 sq. ft. $144
2018-08-15 Single Family Traditional 15018 Vincennes Oak Street Cypress, TX 77429 $200,000 1,999 sq. ft. 6,534 sq. ft. $100
2018-08-15 Single Family Traditional 13322 Ravens Caw Drive Cypress, TX 77429 $209,900 1,960 sq. ft. 7,841 sq. ft. $107
2018-08-15 Single Family Traditional 12710 Ravensway Drive Cypress, TX 77429 $230,000 2,209 sq. ft. 10,890 sq. ft. $104
2018-08-15 Single Family Traditional 12523 Hideaway Park Drive Cypress, TX 77429 $170,000 1,430 sq. ft. 9,148 sq. ft. $119
2018-08-15 Single Family Traditional 16118 Peach Bluff Lane Cypress, TX 77429 $199,999 1,942 sq. ft. 6,534 sq. ft. $103
2018-08-15 Single Family Traditional 15310 Holloway Hills Trail Cypress, TX 77429 $289,444 2,032 sq. ft. $142
2018-08-15 Single Family Traditional 21015 Kelsey Creek Trail Cypress, TX 77433 $545,000 4,571 sq. ft. 15,246 sq. ft. $119
2018-08-15 Single Family Traditional 15811 Hurstfield Pointe Drive Cypress, TX 77429 $390,000 3,662 sq. ft. 8,276 sq. ft. $106
2018-08-15 Single Family Traditional 14227 Spindle Arbor Road Cypress, TX 77429 $319,500 2,910 sq. ft. 9,148 sq. ft. $110
2018-08-15 Single Family Traditional 14947 Solvista Creek Lane Cypress, TX 77429 $250,000 2,995 sq. ft. 12,197 sq. ft. $83
2018-08-15 Single Family Traditional 18334 Red Oak Manor Lane Cypress, TX 77433 $250,000 2,324 sq. ft. 11,761 sq. ft. $108
2018-08-15 Single Family Traditional 18707 Southard Oaks Cypress, TX 77429 $440,000 3,878 sq. ft. 8,276 sq. ft. $113
2018-08-14 Single Family Traditional 16811 Empty Ness Drive Cypress, TX 77429 $207,500 1,718 sq. ft. 6,098 sq. ft. $121
2018-08-14 Single Family Ranch 7126 Hollow Field Lane Cypress, TX 77433 $219,000 2,613 sq. ft. 6,970 sq. ft. $84
2018-08-14 Single Family French; Traditional 16702 Bridle Oak Drive Cypress, TX 77433 $4,989,000 9,784 sq. ft. 958,320 sq. ft. $510
2018-08-14 Single Family Traditional 7606 Hillsdale Park Court Cypress, TX 77433 $185,000 2,190 sq. ft. 5,663 sq. ft. $84
2018-08-14 Single Family Contemporary/Modern 14307 Spring Marsh Court Cypress, TX 77429 $234,500 2,326 sq. ft. 8,712 sq. ft. $101
2018-08-14 Single Family Contemporary/Modern 18123 Redoak Manor Lane Cypress, TX 77433 $289,000 2,850 sq. ft. 7,841 sq. ft. $101
2018-08-14 Single Family Traditional 15123 Winthrop Manor Way Cypress, TX 77433 $270,430 1,987 sq. ft. $136
2018-08-14 Single Family Ranch 13519 Creekway Drive Cypress, TX 77429 $289,900 2,503 sq. ft. 44,867 sq. ft. $116
2018-08-14 Single Family Traditional 19706 Raccoon Hollow Way Cypress, TX 77433 $498,722 3,700 sq. ft. 9,583 sq. ft. $135
2018-08-14 Single Family Ranch 19506 Timberlake Glen Cypress, TX 77433 $561,900 3,746 sq. ft. $150
2018-08-14 Single Family Traditional 19710 Raccoon Hollow Way Cypress, TX 77433 $508,771 3,700 sq. ft. 10,454 sq. ft. $138
2018-08-14 Single Family Traditional 18006 Billabong Crescent Court Cypress, TX 77429 $450,000 4,288 sq. ft. 6,970 sq. ft. $105
2018-08-14 Single Family Traditional 14318 Empire Heights Court Cypress, TX 77429 $315,000 3,308 sq. ft. 8,276 sq. ft. $95
2018-08-14 Single Family Contemporary/Modern; Ranch; Traditional 12811 Palomino Lake Circle Cypress, TX 77429 $606,722 3,200 sq. ft. 10,454 sq. ft. $190
2018-08-14 Single Family Traditional 20314 Everwood Green Lane Cypress, TX 77433 $380,000 3,200 sq. ft. 9,583 sq. ft. $119
2018-08-14 Single Family Traditional 16415 Busy Bee Drive Cypress, TX 77433 $425,000 3,030 sq. ft. 10,019 sq. ft. $140
2018-08-14 Single Family Contemporary/Modern 18311 Crystal Knoll Drive Cypress, TX 77433 $330,990 2,012 sq. ft. 2,178 sq. ft. $165
2018-08-14 Single Family Contemporary/Modern 18309 Crystal Knoll Drive Cypress, TX 77433 $312,990 1,931 sq. ft. 1,742 sq. ft. $162
2018-08-14 Single Family Contemporary/Modern 18303 Crystal Knoll Drive Cypress, TX 77433 $339,990 2,232 sq. ft. $152
2018-08-14 Single Family Contemporary/Modern 18305 Crystal Knoll Drive Cypress, TX 77433 $299,990 1,719 sq. ft. 1,742 sq. ft. $175
2018-08-14 Single Family Traditional 15314 Greenford Glen Drive Cypress, TX 77429 $278,315 2,032 sq. ft. $137
2018-08-14 Single Family Traditional 8239 Oxbow Manor Lane Cypress, TX 77433 $268,741 2,371 sq. ft. $113
2018-08-14 Single Family Contemporary/Modern 18307 Crystal Knoll Drive Cypress, TX 77433 $298,990 1,758 sq. ft. 1,742 sq. ft. $170
2018-08-13 Single Family Traditional 19827 Crested Hill Lane Cypress, TX 77433 $169,900 2,140 sq. ft. 5,663 sq. ft. $79
2018-08-13 Single Family Traditional 19414 Timpson Reservoir Drive Cypress, TX 77433 $459,870 4,159 sq. ft. 8,712 sq. ft. $111
2018-08-13 Single Family Traditional 19011 Cove Forest Lane Cypress, TX 77433 $270,000 2,136 sq. ft. 8,276 sq. ft. $126
2018-08-13 Single Family Traditional 27327 Saxon Meadow Lane Cypress, TX 77433 $430,000 3,291 sq. ft. 16,553 sq. ft. $131
2018-08-13 Single Family Traditional 18730 Penn Farm Drive Cypress, TX 77433 $382,895 2,507 sq. ft. $153
2018-08-13 Single Family Traditional 15723 Whispering Green Drive Cypress, TX 77429 $225,000 1,884 sq. ft. 6,534 sq. ft. $119
2018-08-13 Single Family Ranch 18010 Oak Orchard Lane Cypress, TX 77433 $189,000 1,862 sq. ft. 7,841 sq. ft. $102
2018-08-13 Single Family Traditional 18619 Mosshill Estates Lane Cypress, TX 77429 $264,900 2,447 sq. ft. 15,682 sq. ft. $108
2018-08-13 Single Family Ranch; Traditional 11611 Bonaparte Drive Cypress, TX 77429 $155,000 1,477 sq. ft. 7,405 sq. ft. $105
2018-08-12 Single Family Traditional 19414 White Rock Landing Cypress, TX 77433 $459,990 2,668 sq. ft. 9,148 sq. ft. $172
2018-08-12 Single Family Traditional 18015 Blue Ridge Shores Drive Cypress, TX 77433 $779,926 4,302 sq. ft. 13,504 sq. ft. $181
2018-08-12 Single Family Traditional 11314 Hillside Knoll Cypress, TX 77433 $456,610 3,725 sq. ft. 11,761 sq. ft. $123
2018-08-12 Single Family Traditional 16831 Harbor Falls Drive Cypress, TX 77433 $492,120 4,163 sq. ft. 11,761 sq. ft. $118
2018-08-12 Single Family Traditional 20430 Corbin Creek Drive Cypress, TX 77433 $402,821 3,124 sq. ft. 9,583 sq. ft. $129
2018-08-12 Single Family Traditional 16014 Perch Pond Court Cypress, TX 77433 $511,240 3,031 sq. ft. $169
2018-08-12 Single Family Mediterranean 13602 Kluge Corner Lane Cypress, TX 77429 $675,000 4,350 sq. ft. 28,750 sq. ft. $155
2018-08-12 Single Family Traditional 15218 Rigby Point Lane Cypress, TX 77429 $295,000 3,112 sq. ft. 6,970 sq. ft. $95
2018-08-11 Single Family Contemporary/Modern 7310 River Pines Drive Cypress, TX 77433 $170,000 1,870 sq. ft. 4,792 sq. ft. $91
2018-08-11 Single Family Traditional 17922 Fairhaven Hills Drive Cypress, TX 77433 $799,900 5,094 sq. ft. 36,590 sq. ft. $157
2018-08-11 Single Family Ranch 17226 Saddle Ridge Pass Cypress, TX 77433 $1,650,000 5,805 sq. ft. 298,822 sq. ft. $284
2018-08-11 Single Family Contemporary/Modern 10302 Ivy Hollow Lane Cypress, TX 77433 $365,000 4,434 sq. ft. 6,970 sq. ft. $82
2018-08-11 Single Family Traditional 15439 Forest Creek Farms Dr Cypress, TX 77429 $172,500 1,370 sq. ft. 5,227 sq. ft. $126
2018-08-11 Single Family Traditional 7802 Ashland Springs Lane Cypress, TX 77433 $225,000 3,564 sq. ft. 8,276 sq. ft. $63
2018-08-10 Single Family Other Style; Traditional 14615 Honeycomb Lane Cypress, TX 77429 $213,990 2,028 sq. ft. 9,583 sq. ft. $106
2018-08-10 Single Family Traditional 15234 Henderson Point Drive Cypress, TX 77429 $239,900 1,892 sq. ft. 6,098 sq. ft. $127
2018-08-10 Single Family Traditional 12631 Texas Army Trail Cypress, TX 77429 $227,722 2,270 sq. ft. 10,890 sq. ft. $100
2018-08-10 Single Family Traditional 12806 Shadow Lake Lane Cypress, TX 77429 $540,000 3,347 sq. ft. 122,404 sq. ft. $161
2018-08-10 Single Family Contemporary/Modern 20423 Kohle Springs Ln Cypress, TX 77433 $349,990 3,246 sq. ft. $108
2018-08-10 Single Family Traditional 16723 Cedar Yard Lane Cypress, TX 77433 $574,849 4,086 sq. ft. 10,454 sq. ft. $141
2018-08-10 Single Family Traditional 18127 Temple Hill Cypress, TX 77429 $130,000 1,326 sq. ft. 4,792 sq. ft. $98
2018-08-10 Single Family Traditional 15515 Guadalupe Springs Lane Cypress, TX 77429 $515,000 3,800 sq. ft. 11,761 sq. ft. $136
2018-08-10 Single Family Traditional 18515 Avanta Cove Drive Cypress, TX 77433 $192,950 2,649 sq. ft. 4,356 sq. ft. $73
2018-08-10 Single Family Traditional 14907 Barn Swallow Lane Cypress, TX 77429 $379,995 3,118 sq. ft. $122
2018-08-10 Single Family Traditional 15007 Barn Swallow Lane Cypress, TX 77429 $379,995 3,470 sq. ft. $110
2018-08-10 Single Family Traditional 14919 Codys Run Cypress, TX 77429 $475,000 4,109 sq. ft. 10,454 sq. ft. $116
2018-08-10 Single Family Traditional 16623 Amelia Island Drive Cypress, TX 77433 $349,900 2,557 sq. ft. 6,098 sq. ft. $137
2018-08-10 Single Family Colonial; Traditional 14530 Kentley Orchard Lane Cypress, TX 77429 $330,000 3,142 sq. ft. 8,712 sq. ft. $105
2018-08-10 Single Family Traditional 20203 Rusty Rock Cypress, TX 77433 $255,000 2,995 sq. ft. 8,712 sq. ft. $85
2018-08-10 Single Family Traditional 15115 Calico Heights Lane Cypress, TX 77433 $265,000 2,578 sq. ft. 5,663 sq. ft. $103
2018-08-10 Single Family Traditional 16026 Elmwood Manor Drive Cypress, TX 77429 $485,000 4,285 sq. ft. 10,454 sq. ft. $113
2018-08-10 Single Family Traditional 15303 Bronze Leaf Court Cypress, TX 77433 $260,000 2,196 sq. ft. 10,890 sq. ft. $118
2018-08-10 Single Family Traditional 14902 Whispy Green Ct Cypress, TX 77433 $270,000 2,648 sq. ft. 7,841 sq. ft. $102
2018-08-10 Single Family Traditional 13926 Tribe Drive Cypress, TX 77429 $253,990 2,824 sq. ft. 5,663 sq. ft. $90
2018-08-10 Single Family Traditional 20514 Rustic Rail Court Cypress, TX 77433 $220,000 2,215 sq. ft. 5,227 sq. ft. $99
2018-08-10 Single Family Traditional 7319 Thornmeadow Lane Cypress, TX 77433 $249,999 3,001 sq. ft. 9,148 sq. ft. $83
2018-08-10 Single Family Traditional 16407 Kendons Way Lane Cypress, TX 77429 $146,000 1,357 sq. ft. 4,356 sq. ft. $108
2018-08-09 Single Family Traditional 18502 Florence Knoll Drive Cypress, TX 77429 $411,416 2,439 sq. ft. $169
2018-08-09 Single Family Traditional 18506 Florence Knoll Drive Cypress, TX 77429 $395,950 2,448 sq. ft. $162
2018-08-09 Single Family Traditional 18726 June Grove Lane Cypress, TX 77429 $410,797 2,231 sq. ft. $184
2018-08-09 Single Family Traditional 18730 June Grove Lane Cypress, TX 77429 $418,658 2,626 sq. ft. $159
2018-08-09 Single Family Traditional 26619 Granite Knoll Lane Cypress, TX 77433 $440,000 3,646 sq. ft. 10,454 sq. ft. $121
2018-08-09 Single Family Traditional 19827 Mariah Rose Court Cypress, TX 77433 $379,800 3,182 sq. ft. 6,098 sq. ft. $119
2018-08-09 Single Family English; Other Style 17619 Cypress Fields Avenue Cypress, TX 77429 $595,000 4,654 sq. ft. 130,680 sq. ft. $128
2018-08-09 Single Family Traditional 14214 Darby Springs Way Cypress, TX 77429 $330,000 4,133 sq. ft. 6,970 sq. ft. $80
2018-08-09 Single Family Traditional 16530 Barker Ranch Court Cypress, TX 77429 $300,000 3,374 sq. ft. 9,583 sq. ft. $89
2018-08-09 Single Family Traditional 15831 Sarasam Creek Court Cypress, TX 77429 $169,900 1,322 sq. ft. 5,227 sq. ft. $129
2018-08-09 Single Family Traditional 20751 Cypress Post Drive Cypress, TX 77433 $163,000 2,476 sq. ft. 5,663 sq. ft. $66
2018-08-09 Single Family Traditional 14306 Golden Cypress Lane Cypress, TX 77429 $169,900 1,674 sq. ft. 9,583 sq. ft. $101
2018-08-09 Single Family Traditional 14919 Breezy Forest Cypress, TX 77433 $219,000 2,267 sq. ft. $97
2018-08-09 Single Family Traditional 20703 Creston Acres Lane Cypress, TX 77433 $219,234 1,764 sq. ft. $124
2018-08-09 Single Family Traditional 12707 Devotion Lane Cypress, TX 77429 $324,520 2,517 sq. ft. 8,276 sq. ft. $129
2018-08-09 Single Family Traditional 20707 Creston Acres Lane Cypress, TX 77433 $239,962 2,082 sq. ft. $115
2018-08-09 Single Family Traditional 20826 Bristol Meadow Lane Cypress, TX 77433 $349,548 2,760 sq. ft. $127
2018-08-09 Single Family Traditional 20915 Bristol Meadow Lane Cypress, TX 77433 $299,876 2,595 sq. ft. $116
2018-08-09 Single Family Traditional 20510 Shadow Grange Cypress, TX 77433 $219,000 2,524 sq. ft. 6,970 sq. ft. $87
2018-08-09 Single Family Traditional 18011 Shallow Leaf Lane Cypress, TX 77433 $209,600 2,532 sq. ft. 4,356 sq. ft. $83
2018-08-09 Single Family Colonial; Traditional 12719 Bonnywood Lane Cypress, TX 77429 $250,000 2,311 sq. ft. 11,326 sq. ft. $108
2018-08-09 Single Family Traditional 15707 Windsor Bluff Drive Cypress, TX 77429 $280,000 2,443 sq. ft. 6,534 sq. ft. $115
2018-08-09 Single Family Traditional 14426 Terrace Bend Cypress, TX 77429 $275,000 2,219 sq. ft. 9,583 sq. ft. $124
2018-08-09 Single Family Colonial 10442 Lavender Landing Lane Cypress, TX 77433 $650,000 5,278 sq. ft. 16,988 sq. ft. $123
2018-08-09 Single Family Traditional 8507 Sedona Run Drive Cypress, TX 77433 $299,900 3,132 sq. ft. 9,583 sq. ft. $96
2018-08-09 Single Family Traditional 15002 Grape Orchard Court Cypress, TX 77433 $300,000 3,086 sq. ft. 10,019 sq. ft. $97
2018-08-09 Single Family Traditional 15413 Packard Green Trail Cypress, TX 77429 $225,000 2,375 sq. ft. 6,970 sq. ft. $95
2018-08-08 Single Family Traditional 14414 Fall Fair Court Cypress, TX 77429 $264,900 3,102 sq. ft. 7,405 sq. ft. $85
2018-08-08 Single Family Contemporary/Modern 12503 Retreat Trail Cypress, TX 77429 $239,900 2,261 sq. ft. 13,068 sq. ft. $106
2018-08-08 Single Family Traditional 15915 Pilot Knob Cypress, TX 77433 $459,276 2,409 sq. ft. $191
2018-08-08 Single Family Traditional 15911 Pilot Knob Cypress, TX 77433 $472,927 2,440 sq. ft. $194
2018-08-08 Single Family Traditional 16826 Paynes Creek Drive Cypress, TX 77433 $325,000 3,088 sq. ft. 7,405 sq. ft. $105
2018-08-08 Single Family Traditional 19003 Cove Springs Court Cypress, TX 77433 $360,000 3,217 sq. ft. 8,276 sq. ft. $112
2018-08-08 Single Family Contemporary/Modern 15923 Pilot Knob Cypress, TX 77433 $494,608 3,071 sq. ft. $161
2018-08-08 Single Family Traditional 20802 Blue Hyacinth Drive Cypress, TX 77433 $279,900 2,700 sq. ft. 5,663 sq. ft. $104
2018-08-08 Single Family Traditional 14014 Steelwood Drive Cypress, TX 77429 $415,000 3,901 sq. ft. 10,454 sq. ft. $106
2018-08-08 Single Family Traditional 13926 Cypress Star Lane Cypress, TX 77429 $265,000 3,135 sq. ft. 5,227 sq. ft. $85
2018-08-08 Single Family Traditional 10802 Barker Gate Court Cypress, TX 77433 $215,000 2,295 sq. ft. 13,068 sq. ft. $94
2018-08-08 Single Family Traditional 15902 Ellendale Court Cypress, TX 77429 $275,000 2,595 sq. ft. 10,019 sq. ft. $106
2018-08-08 Single Family Traditional 14227 Rosetta Drive Cypress, TX 77429 $159,900 1,477 sq. ft. 6,098 sq. ft. $108
2018-08-08 Single Family Traditional 18240 Fenske Road Cypress, TX 77433 $600,000 3,003 sq. ft. 43,560 sq. ft. $200
2018-08-08 Single Family Traditional 10506 Winding Arbor Court Cypress, TX 77433 $430,133 2,412 sq. ft. 9,148 sq. ft. $178
2018-08-08 Single Family Traditional 14819 Dunsmore Meadow Trail Cypress, TX 77429 $470,604 3,628 sq. ft. 7,405 sq. ft. $130
2018-08-08 Single Family Traditional 14107 Julington Lane Cypress, TX 77429 $315,000 3,031 sq. ft. 7,405 sq. ft. $104
2018-08-08 Single Family Traditional 15475 Signal Ridge Way Cypress, TX 77429 $277,000 3,072 sq. ft. 8,712 sq. ft. $90
2018-08-08 Single Family Traditional 7818 Connemara Drive Cypress, TX 77433 $215,921 2,134 sq. ft. 5,663 sq. ft. $101
2018-08-07 Single Family Mediterranean; Ranch 16510 Havasu Drive Cypress, TX 77433 $314,900 2,582 sq. ft. 8,276 sq. ft. $122
2018-08-07 Single Family Contemporary/Modern 15515 Hickory Dale Street Cypress, TX 77429 $180,000 1,651 sq. ft. 4,792 sq. ft. $109
2018-08-07 Single Family Traditional 20722 Cupshire Drive Cypress, TX 77433 $385,000 4,402 sq. ft. 8,276 sq. ft. $87
2018-08-07 Single Family Traditional 13202 Lismore Point Cypress, TX 77429 $339,975 3,155 sq. ft. 6,534 sq. ft. $108
2018-08-07 Single Family Traditional 17606 Fragrant Rose Court Cypress, TX 77429 $629,000 4,499 sq. ft. 30,928 sq. ft. $140
2018-08-07 Single Family Contemporary/Modern; Traditional 12806 Bedford Falls Drive Cypress, TX 77429 $339,900 3,144 sq. ft. 7,841 sq. ft. $108
2018-08-07 Single Family Traditional 8222 Oxbow Manor Lane Cypress, TX 77433 $299,900 2,900 sq. ft. 7,405 sq. ft. $103
2018-08-07 Single Family Ranch 19510 Oblong Circle Cypress, TX 77429 $230,000 2,373 sq. ft. 9,583 sq. ft. $97
2018-08-07 Single Family Traditional 13819 Skylark Bend Lane Cypress, TX 77429 $456,978 3,392 sq. ft. 7,841 sq. ft. $135
2018-08-07 Single Family Traditional 15006 Miller Meadows Lane Cypress, TX 77433 $244,900 3,220 sq. ft. 4,792 sq. ft. $76
2018-08-07 Single Family Traditional 8034 Oxbow Manor Lane Cypress, TX 77433 $233,000 1,764 sq. ft. 6,098 sq. ft. $132
2018-08-07 Single Family Traditional 12510 Ravens Chase Lane Cypress, TX 77429 $179,000 2,478 sq. ft. 8,712 sq. ft. $72
2018-08-07 Single Family Other Style 12502 Cypress Crossing Drive Cypress, TX 77429 $50,000 1,008 sq. ft. 20,473 sq. ft. $50
2018-08-07 Single Family Traditional 13818 Skylark Bend Lane Cypress, TX 77429 $440,042 2,885 sq. ft. 7,405 sq. ft. $153
2018-08-07 Single Family Traditional 20111 Baron Brook Drive Cypress, TX 77433 $179,000 3,130 sq. ft. 6,534 sq. ft. $57
2018-08-07 Single Family Traditional 20427 Corbin Creek Drive Cypress, TX 77433 $421,971 3,501 sq. ft. 10,454 sq. ft. $121
2018-08-07 Single Family Traditional 16843 Harbor Falls Drive Cypress, TX 77433 $494,057 4,064 sq. ft. 11,761 sq. ft. $122
2018-08-07 Single Family Ranch 14718 Cypress Meadow Drive Cypress, TX 77429 $164,900 1,600 sq. ft. 7,405 sq. ft. $103
2018-08-07 Single Family Traditional 14911 Barn Swallow Lane Cypress, TX 77429 $394,995 3,599 sq. ft. $110
2018-08-07 Single Family Traditional 14906 House Martin Lane Cypress, TX 77429 $369,985 2,961 sq. ft. $125
2018-08-07 Single Family Spanish 18001 Mueschke Road Cypress, TX 77433 $995,500 3,283 sq. ft. 263,538 sq. ft. $303
2018-08-06 Single Family Traditional 7327 Parkland Manor Drive Cypress, TX 77433 $168,000 1,890 sq. ft. 3,920 sq. ft. $89
2018-08-06 Single Family Traditional 22115 Ash Green Drive Cypress, TX 77433 $415,900 3,550 sq. ft. 8,276 sq. ft. $117
2018-08-06 Single Family Traditional 18418 Hughlett Drive Cypress, TX 77433 $459,999 3,200 sq. ft. 8,712 sq. ft. $144
2018-08-06 Single Family Traditional 16726 Paynes Creek Drive Cypress, TX 77433 $438,999 2,793 sq. ft. 8,712 sq. ft. $157
2018-08-06 Single Family Traditional 20623 Riley Copper Drive Cypress, TX 77433 $256,990 1,652 sq. ft. 6,534 sq. ft. $156
2018-08-06 Single Family Traditional 15319 Hope Shadow Court Cypress, TX 77429 $249,900 2,768 sq. ft. 4,792 sq. ft. $90
2018-08-06 Single Family Ranch 20319 Edworthy Road Cypress, TX 77433 $150,000 1,577 sq. ft. 18,731 sq. ft. $95
2018-08-06 Single Family Traditional 19610 Salado Creek Court Cypress, TX 77433 $422,000 3,411 sq. ft. 10,890 sq. ft. $124
2018-08-06 Single Family Mediterranean; Traditional 10706 Hilltop Harbor Way Cypress, TX 77433 $399,999 2,372 sq. ft. 9,148 sq. ft. $169
2018-08-06 Single Family Ranch; Traditional 20323 Scenic Woods Drive Cypress, TX 77433 $209,900 1,910 sq. ft. 6,970 sq. ft. $110
2018-08-06 Single Family Traditional 14915 Autumnvale Lane Cypress, TX 77429 $298,000 2,766 sq. ft. 8,276 sq. ft. $108
2018-08-06 Single Family Traditional 19918 Rocky Edge Cypress, TX 77433 $395,975 3,308 sq. ft. 7,405 sq. ft. $120
2018-08-06 Single Family Mediterranean 11707 Lismore Lake Drive Cypress, TX 77429 $425,000 3,612 sq. ft. 6,970 sq. ft. $118
2018-08-06 Single Family Contemporary/Modern 15518 Kinder Bluff Lane Cypress, TX 77429 $394,500 3,584 sq. ft. 7,405 sq. ft. $110
2018-08-06 Single Family Traditional 14630 Honeycomb Lane Cypress, TX 77429 $205,000 2,042 sq. ft. 10,890 sq. ft. $100
2018-08-06 Single Family Traditional 19031 Parkland View Drive Cypress, TX 77433 $484,970 3,597 sq. ft. 9,583 sq. ft. $135
2018-08-06 Single Family Traditional 19135 Watchful Willow Cypress, TX 77433 $428,965 2,896 sq. ft. $148
2018-08-06 Single Family Traditional 18210 Cobblestone Drive Cypress, TX 77429 $250,000 2,756 sq. ft. 7,841 sq. ft. $91
2018-08-06 Single Family Traditional 13023 Far Point Manor Court Cypress, TX 77429 $420,000 3,593 sq. ft. 14,810 sq. ft. $117
2018-08-06 Single Family Traditional 15218 Brown Eyed Susan Court Cypress, TX 77433 $339,900 3,200 sq. ft. 6,534 sq. ft. $106
2018-08-05 Single Family Traditional 8511 Parati Creek Lane Cypress, TX 77433 $280,000 2,883 sq. ft. 10,454 sq. ft. $97
2018-08-04 Single Family Traditional 19921 Stoney Haven Drive Cypress, TX 77433 $125,000 1,165 sq. ft. 4,356 sq. ft. $107
2018-08-04 Single Family Traditional 16619 Wolf Pass Drive Cypress, TX 77433 $511,127 3,995 sq. ft. $128
2018-08-04 Single Family Traditional 16614 Wolf Pass Drive Cypress, TX 77433 $496,981 4,163 sq. ft. $119
2018-08-04 Single Family Traditional 18802 Windhaven Terrace Trail Cypress, TX 77433 $309,000 3,912 sq. ft. 8,276 sq. ft. $79
2018-08-04 Single Family Traditional 20219 Rusty Rock Lane Cypress, TX 77433 $264,900 2,392 sq. ft. 8,276 sq. ft. $111
2018-08-04 Single Family Traditional 13918 Rivendell Crest Lane Cypress, TX 77429 $479,800 3,222 sq. ft. 10,890 sq. ft. $149
2018-08-04 Single Family Traditional 12007 Cove Hill Lane Cypress, TX 77433 $625,000 4,714 sq. ft. 14,810 sq. ft. $133
2018-08-04 Single Family Traditional 14407 Wickhurst Place Cypress, TX 77429 $277,500 2,719 sq. ft. 7,405 sq. ft. $102
2018-08-04 Single Family Traditional 7322 Kransburg Ranch Drive Cypress, TX 77433 $159,000 2,120 sq. ft. 4,792 sq. ft. $75
2018-08-04 Single Family Traditional 26103 Cross Hollow Lane Cypress, TX 77433 $848,800 5,664 sq. ft. 64,469 sq. ft. $150
2018-08-04 Single Family Traditional 11922 Mueller Cemetary Road Cypress, TX 77429 $195,000 1,450 sq. ft. 34,412 sq. ft. $134
2018-08-04 Single Family Traditional 10021 Easton Sky Lane Cypress, TX 77433 $545,000 4,367 sq. ft. 9,148 sq. ft. $125
2018-08-04 Single Family Traditional 20414 Regal Shadow Lane Cypress, TX 77433 $440,000 4,212 sq. ft. 9,583 sq. ft. $104
2018-08-03 Single Family Ranch 18722 Fox Kestrel Trail Cypress, TX 77429 $262,500 1,855 sq. ft. 6,970 sq. ft. $142
2018-08-03 Single Family Traditional 14822 Fir Knoll Way Cypress, TX 77429 $185,000 1,779 sq. ft. 4,792 sq. ft. $104
2018-08-03 Single Family Traditional 20131 Cascading Falls Boulevard Cypress, TX 77433 $365,000 3,581 sq. ft. 8,712 sq. ft. $102
2018-08-03 Single Family Traditional 15510 Kerrville Court Cypress, TX 77429 $570,000 3,828 sq. ft. 13,939 sq. ft. $149
2018-08-03 Single Family Traditional 11811 Oakshield Lane Cypress, TX 77433 $424,900 4,581 sq. ft. 10,019 sq. ft. $93
2018-08-03 Single Family Traditional 14926 Telge Lake Trail Cypress, TX 77429 $264,900 2,643 sq. ft. 9,583 sq. ft. $100
2018-08-03 Single Family Traditional 12526 Saracen Drive Cypress, TX 77429 $165,000 2,173 sq. ft. 10,019 sq. ft. $76
2018-08-03 Single Family Other Style 7102 Village Lake Drive Cypress, TX 77433 $134,900 1,305 sq. ft. 6,970 sq. ft. $103
2018-08-03 Single Family Traditional 20827 Bristol Meadow Lane Cypress, TX 77433 $288,288 2,032 sq. ft. $142
2018-08-03 Single Family Traditional 20814 Bristol Meadow Lane Cypress, TX 77433 $349,522 3,012 sq. ft. $116
2018-08-03 Single Family Traditional 15446 Greenford Glen Drive Cypress, TX 77429 $334,588 2,950 sq. ft. $113
2018-08-03 Single Family Traditional 20903 Bristol Meadow Lane Cypress, TX 77433 $299,116 2,640 sq. ft. $113
2018-08-03 Single Family Traditional 18610 Shavano Court Cypress, TX 77433 $240,000 2,534 sq. ft. 11,326 sq. ft. $95
2018-08-03 Single Family Traditional 20010 Spring Wreath Lane Cypress, TX 77433 $219,000 2,725 sq. ft. 6,098 sq. ft. $80
2018-08-03 Single Family Traditional 18015 Rustic Brook Court Cypress, TX 77429 $200,000 1,510 sq. ft. 5,227 sq. ft. $132
2018-08-03 Single Family English; Mediterranean; Other Style; Ranch; Spanish; Traditional 16221 Stone Oak Estates Court Cypress, TX 77429 $3,000,000 6,755 sq. ft. 239,144 sq. ft. $444
2018-08-03 Single Family Traditional 14011 Halprin Creek Drive Cypress, TX 77429 $418,800 3,924 sq. ft. 10,454 sq. ft. $107
2018-08-03 Single Family Contemporary/Modern 16803 Thomas Ridge Lane Cypress, TX 77433 $489,000 4,410 sq. ft. 16,553 sq. ft. $111
2018-08-03 Single Family Traditional 11258 Puckett River Drive Cypress, TX 77433 $370,000 3,336 sq. ft. 8,712 sq. ft. $111
2018-08-03 Single Family Traditional 13626 Keneva Drive Cypress, TX 77429 $360,000 3,218 sq. ft. 8,276 sq. ft. $112
2018-08-03 Single Family Traditional 13510 Olden Court Cypress, TX 77429 $279,000 2,754 sq. ft. 6,970 sq. ft. $101
2018-08-03 Single Family Colonial 19006 Fir Canyon Trail Cypress, TX 77429 $240,000 2,782 sq. ft. 7,405 sq. ft. $86
2018-08-03 Single Family Traditional 19743 Swan Valley Drive Cypress, TX 77433 $135,000 984 sq. ft. 4,356 sq. ft. $137
2018-08-03 Single Family Traditional 18026 Fossilwood Lane Cypress, TX 77429 $320,000 2,577 sq. ft. 9,148 sq. ft. $124
2018-08-02 Single Family Traditional 15007 Opera House Row Drive Cypress, TX 77429 $324,950 3,090 sq. ft. 6,970 sq. ft. $105
2018-08-02 Single Family Traditional 15835 Mountain Willow Way Cypress, TX 77429 $215,000 2,117 sq. ft. 5,227 sq. ft. $102
2018-08-02 Single Family Traditional 16314 Kendons Way Lane Cypress, TX 77429 $185,000 2,132 sq. ft. 4,792 sq. ft. $87
2018-08-02 Single Family Traditional 12418 Ravens Chase Lane Cypress, TX 77429 $229,000 1,998 sq. ft. 7,841 sq. ft. $115
2018-08-02 Single Family Traditional 19122 Prairie Bluff Drive Cypress, TX 77433 $165,000 1,673 sq. ft. 5,663 sq. ft. $99
2018-08-02 Single Family Ranch; Traditional 19607 Stanton Lake Drive Cypress, TX 77433 $325,000 2,856 sq. ft. 10,019 sq. ft. $114
2018-08-02 Single Family Traditional 14327 Pelican Marsh Drive Cypress, TX 77429 $276,900 3,784 sq. ft. 6,098 sq. ft. $73
2018-08-02 Single Family Traditional 14110 Galvani Drive Cypress, TX 77429 $250,000 1,910 sq. ft. 7,405 sq. ft. $131
2018-08-02 Single Family Traditional 13011 Shady Knoll Lane Cypress, TX 77429 $249,950 2,752 sq. ft. 9,148 sq. ft. $91
2018-08-02 Single Family Traditional 15410 Coral Leaf Trail Cypress, TX 77433 $270,000 2,895 sq. ft. 6,534 sq. ft. $93
2018-08-02 Single Family Traditional 14715 Golden Hawk Trail Cypress, TX 77433 $400,000 4,352 sq. ft. 8,712 sq. ft. $92
2018-08-02 Single Family Traditional 13307 Andover Harvest Lane Cypress, TX 77429 $330,000 2,892 sq. ft. 8,276 sq. ft. $114
2018-08-02 Single Family Traditional 15406 Travis Falls Cypress, TX 77429 $383,410 3,148 sq. ft. $122
2018-08-02 Single Family Traditional 18715 Southard Oaks Cypress, TX 77429 $420,000 3,531 sq. ft. 9,583 sq. ft. $119
2018-08-02 Single Family Traditional 13219 Pine Drive Cypress, TX 77429 $335,000 2,918 sq. ft. 37,462 sq. ft. $115
2018-08-02 Single Family Traditional 14439 Terrace Bend Cypress, TX 77429 $350,000 3,900 sq. ft. 9,148 sq. ft. $90
2018-08-02 Single Family Traditional 11831 Trinity Bluff Ln Cypress, TX 77433 $315,000 2,441 sq. ft. $129
2018-08-02 Single Family Mediterranean; Traditional 10211 Grape Creek Grove Lane Cypress, TX 77433 $999,900 4,698 sq. ft. 15,246 sq. ft. $213
2018-08-02 Single Family Traditional 20306 Cypress Poll Drive Cypress, TX 77433 $250,000 2,590 sq. ft. 7,405 sq. ft. $97
2018-08-02 Single Family Traditional 7114 Greenwood Point Drive Cypress, TX 77433 $165,000 1,425 sq. ft. 5,227 sq. ft. $116
2018-08-02 Single Family Traditional 19722 Dayton Springs Drive Cypress, TX 77429 $195,000 1,693 sq. ft. 5,663 sq. ft. $115
2018-08-02 Single Family Traditional 20718 Desert Shadows Lane Cypress, TX 77433 $205,000 2,580 sq. ft. 4,792 sq. ft. $79
2018-08-02 Single Family Traditional 16126 Colt Springs Lane Cypress, TX 77429 $235,000 2,293 sq. ft. 7,841 sq. ft. $102
2018-08-02 Single Family Traditional 21103 Lexxe Creek Court Cypress, TX 77433 $500,000 3,869 sq. ft. 16,553 sq. ft. $129
2018-08-02 Single Family Traditional 21615 Harbor Water Drive Cypress, TX 77433 $680,000 4,801 sq. ft. 23,522 sq. ft. $142
2018-08-01 Single Family Traditional 16323 Jast Drive Cypress, TX 77429 $199,000 2,090 sq. ft. 7,405 sq. ft. $95
2018-08-01 Single Family Traditional 18123 Moonlit River Drive Cypress, TX 77433 $249,999 1,722 sq. ft. 2,614 sq. ft. $145
2018-08-01 Single Family Traditional 19519 Cisco Court Cypress, TX 77433 $519,999 4,053 sq. ft. 10,890 sq. ft. $128
2018-08-01 Single Family Traditional 20727 Creston Acres Lane Cypress, TX 77433 $299,214 2,204 sq. ft. $136
2018-08-01 Single Family Traditional 20723 Creston Acres Lane Cypress, TX 77433 $299,178 2,950 sq. ft. $101
2018-08-01 Single Family Traditional 17123 Rosenfield Reach Drive Cypress, TX 77433 $536,747 3,389 sq. ft. $158
2018-08-01 Single Family Traditional 18742 Penn Farm Drive Cypress, TX 77433 $398,838 2,528 sq. ft. $158
2018-08-01 Single Family Traditional 18734 Penn Farm Drive Cypress, TX 77433 $388,390 2,298 sq. ft. $169
2018-08-01 Single Family Traditional 19243 Midnight Glen Drive Cypress, TX 77429 $209,900 1,782 sq. ft. 5,663 sq. ft. $118
2018-08-01 Single Family Traditional 10706 Dawn River Court Cypress, TX 77433 $423,000 3,073 sq. ft. $138
2018-08-01 Single Family Traditional 20130 Breezy Oak Court Cypress, TX 77433 $175,000 1,333 sq. ft. 5,663 sq. ft. $131
2018-08-01 Single Family Contemporary/Modern 10503 S Sunrise Shores Drive Cypress, TX 77433 $727,809 4,144 sq. ft. 12,632 sq. ft. $176
2018-08-01 Single Family Traditional 13923 Oneida Court Cypress, TX 77429 $239,900 2,436 sq. ft. 10,019 sq. ft. $98
2018-08-01 Single Family Traditional 19734 Shinnery Ridge Court Cypress, TX 77433 $290,235 2,051 sq. ft. $142
2018-08-01 Single Family Traditional 14323 Prosper Ridge Drive Cypress, TX 77429 $329,500 3,782 sq. ft. 6,534 sq. ft. $87
2018-08-01 Single Family Ranch; Traditional 8711 Orchid Valley Way Cypress, TX 77433 $239,995 1,498 sq. ft. 0 sq. ft. $160
2018-08-01 Single Family Ranch; Traditional 8703 Orchid Valley Way Cypress, TX 77433 $303,995 2,596 sq. ft. 0 sq. ft. $117
2018-08-01 Single Family Ranch; Traditional 19831 La Portada Drive Cypress, TX 77433 $268,995 2,173 sq. ft. 0 sq. ft. $124
2018-08-01 Single Family Ranch; Traditional 19823 La Portada Drive Cypress, TX 77433 $290,995 2,708 sq. ft. 0 sq. ft. $107
2018-08-01 Single Family Mediterranean 13706 Lindsey Hill Lane Cypress, TX 77429 $749,000 4,816 sq. ft. 16,553 sq. ft. $156
2018-08-01 Single Family Ranch; Traditional 19819 La Portada Drive Cypress, TX 77433 $320,995 3,172 sq. ft. 0 sq. ft. $101
2018-08-01 Single Family Traditional 14926 Primrose Hollow Court Cypress, TX 77429 $360,000 3,229 sq. ft. 8,712 sq. ft. $111
2018-08-01 Single Family Contemporary/Modern 17011 Seminole Ridge Drive Cypress, TX 77433 $295,000 2,394 sq. ft. 5,227 sq. ft. $123
2018-08-01 Single Family Traditional 8806 Windhaven Terrace Trail Cypress, TX 77433 $268,000 2,475 sq. ft. 10,454 sq. ft. $108
2018-07-31 Single Family Traditional 19847 Broken Cactus Drive Cypress, TX 77433 $327,990 2,788 sq. ft. $118
2018-07-31 Single Family Traditional 11747 Edenstone Drive Cypress, TX 77429 $220,000 3,164 sq. ft. 5,227 sq. ft. $70
2018-07-31 Single Family Contemporary/Modern 15918 Talala Trail Cypress, TX 77433 $464,660 2,332 sq. ft. 9,148 sq. ft. $199
2018-07-31 Single Family Traditional 15406 Sycamore Leaf Lane Cypress, TX 77429 $240,000 2,492 sq. ft. 6,534 sq. ft. $96
2018-07-31 Single Family Mediterranean; Traditional 13818 Campwood Lane Cypress, TX 77429 $549,990 4,434 sq. ft. 13,939 sq. ft. $124
2018-07-31 Single Family Traditional 12807 Hazelway Lane Cypress, TX 77429 $285,000 3,175 sq. ft. 10,454 sq. ft. $90
2018-07-31 Single Family Traditional 14755 Country Rose Lane Cypress, TX 77429 $233,000 2,279 sq. ft. 6,534 sq. ft. $102
2018-07-31 Single Family Traditional 19815 Blushdawn Sierra Court Cypress, TX 77433 $218,995 2,124 sq. ft. $103
2018-07-31 Single Family Traditional 22107 Dancing Green Drive Cypress, TX 77433 $444,500 3,504 sq. ft. 11,761 sq. ft. $127
2018-07-31 Single Family Traditional 17911 Misty Pond Court Cypress, TX 77429 $210,000 1,900 sq. ft. 5,663 sq. ft. $111
2018-07-31 Single Family English; Traditional 12942 Cluster Pine Drive Cypress, TX 77429 $325,000 2,995 sq. ft. 11,761 sq. ft. $109
2018-07-31 Single Family Traditional 21714 May Apple Court Cypress, TX 77433 $215,000 1,897 sq. ft. 6,534 sq. ft. $113
2018-07-30 Single Family Traditional 21206 Catherine Anne Court Cypress, TX 77433 $490,000 4,548 sq. ft. 16,117 sq. ft. $108
2018-07-30 Single Family Traditional 13407 Post Oak Glen Lane Cypress, TX 77429 $250,000 2,370 sq. ft. 9,583 sq. ft. $105
2018-07-30 Single Family Traditional 12427 Cypress North Houston Road Cypress, TX 77429 $250,000 1,591 sq. ft. 27,878 sq. ft. $157
2018-07-30 Single Family Traditional 19427 Stanton Lake Drive Drive Cypress, TX 77433 $315,000 2,953 sq. ft. 8,276 sq. ft. $107
2018-07-30 Single Family Traditional 14206 Bloomingdale Manor Drive Cypress, TX 77429 $449,990 4,998 sq. ft. 8,276 sq. ft. $90
2018-07-30 Single Family Traditional 19302 Dawntreader Drive Cypress, TX 77429 $228,000 2,946 sq. ft. 6,534 sq. ft. $77
2018-07-30 Single Family Traditional 19707 Raccoon Hollow Way Cypress, TX 77433 $503,900 3,395 sq. ft. 7,841 sq. ft. $148
2018-07-30 Single Family Georgian; Traditional 26123 Timberstone Court Cypress, TX 77433 $475,000 4,652 sq. ft. 14,810 sq. ft. $102
2018-07-30 Single Family Traditional 19618 Red Copper Lane Cypress, TX 77433 $334,990 3,350 sq. ft. $100
2018-07-30 Single Family Traditional 16018 Lower Lake Drive Cypress, TX 77433 $459,900 4,061 sq. ft. 11,326 sq. ft. $113
2018-07-30 Single Family Traditional 12955 Lake Parc Bend Drive Cypress, TX 77429 $530,000 3,769 sq. ft. 12,197 sq. ft. $141
2018-07-30 Single Family Traditional 17327 Morgans Secret Drive Cypress, TX 77433 $335,000 3,193 sq. ft. 7,405 sq. ft. $105
2018-07-30 Single Family Traditional 15315 Turning Limb Court Cypress, TX 77433 $330,000 2,846 sq. ft. 7,841 sq. ft. $116
2018-07-30 Single Family Traditional 16103 Stone Stable Lane Cypress, TX 77429 $239,000 2,359 sq. ft. 6,534 sq. ft. $101
2018-07-30 Single Family Traditional 19719 Raccoon Hollow Way Cypress, TX 77433 $479,900 3,397 sq. ft. 7,841 sq. ft. $141
2018-07-30 Single Family Traditional 15543 Mossy Park Cypress, TX 77429 $218,000 1,789 sq. ft. 6,534 sq. ft. $122
2018-07-30 Single Family Traditional 7919 Meandering Oak Lane Cypress, TX 77433 $180,000 1,508 sq. ft. 5,663 sq. ft. $119
2018-07-30 Single Family Traditional 9510 Jayci Hills Lane Cypress, TX 77433 $268,000 2,200 sq. ft. 6,534 sq. ft. $122
2018-07-30 Single Family Traditional 19806 Summit Crest Court Cypress, TX 77433 $280,000 2,215 sq. ft. 6,098 sq. ft. $126
2018-07-30 Single Family Traditional 11210 Daybreak Lane Cypress, TX 77429 $146,000 1,613 sq. ft. 6,970 sq. ft. $91
2018-07-30 Single Family Traditional 13822 Magnolia Manor Drive Cypress, TX 77429 $480,000 4,304 sq. ft. 10,890 sq. ft. $112
2018-07-30 Single Family Traditional 14411 Melba Rose Circle Cypress, TX 77429 $244,900 2,515 sq. ft. 12,197 sq. ft. $97
2018-07-30 Single Family Traditional 18214 Tuscana Shores Drive Cypress, TX 77433 $225,000 2,329 sq. ft. 4,792 sq. ft. $97
2018-07-29 Single Family Traditional 18706 Dove Creek Springs Trail Cypress, TX 77433 $450,000 3,514 sq. ft. 10,019 sq. ft. $128
2018-07-29 Single Family Traditional 10618 Lake Riata Lane Cypress, TX 77433 $324,900 3,513 sq. ft. 10,019 sq. ft. $92
2018-07-29 Single Family Other Style; Traditional 13026 Maxwell Road Cypress, TX 77429 $459,000 2,275 sq. ft. 61,420 sq. ft. $202
2018-07-29 Single Family Traditional 8507 Morning Oak Lane Cypress, TX 77433 $248,000 2,884 sq. ft. 7,405 sq. ft. $86
2018-07-29 Single Family Traditional 10415 Mossy Brook Lane Cypress, TX 77433 $239,000 2,206 sq. ft. 6,970 sq. ft. $108
2018-07-28 Single Family Traditional 9107 Brampton Mill Court Cypress, TX 77433 $334,774 3,070 sq. ft. 12,197 sq. ft. $109
2018-07-28 Single Family Other Style 13114 Maxwell Road Cypress, TX 77429 $399,000 1,979 sq. ft. 48,787 sq. ft. $202
2018-07-28 Single Family Traditional 17303 Heron Crest Drive Cypress, TX 77433 $575,000 4,285 sq. ft. 10,454 sq. ft. $134
2018-07-28 Single Family Traditional 14215 Marin Drive Cypress, TX 77429 $344,900 3,212 sq. ft. 10,454 sq. ft. $107
2018-07-28 Single Family Traditional 10323 Joshua Creek Court Cypress, TX 77433 $949,900 4,935 sq. ft. 18,295 sq. ft. $192
2018-07-28 Single Family Traditional 20530 Keegans Ledge Lane Cypress, TX 77433 $212,000 1,801 sq. ft. 5,663 sq. ft. $118
2018-07-28 Single Family Traditional 20714 Keegans Ledge Lane Cypress, TX 77433 $225,000 2,360 sq. ft. 5,227 sq. ft. $95
2018-07-28 Single Family Traditional 20910 Amber Willow Trail Cypress, TX 77433 $270,000 2,354 sq. ft. 9,148 sq. ft. $115
2018-07-27 Single Family Ranch; Traditional 16006 Reston Bridge Drive Cypress, TX 77429 $345,000 3,421 sq. ft. 9,148 sq. ft. $101
2018-07-27 Single Family Traditional 15335 Hickory Dale Street Cypress, TX 77429 $209,000 2,440 sq. ft. 5,227 sq. ft. $86
2018-07-27 Single Family Traditional 11330 Kolbe Drive Cypress, TX 77429 $364,900 2,288 sq. ft. 43,560 sq. ft. $159
2018-07-27 Single Family Traditional 19543 Mills Glen Drive Cypress, TX 77433 $315,000 3,139 sq. ft. 6,534 sq. ft. $100
2018-07-27 Single Family Traditional 13103 Dogwood Glen Court Cypress, TX 77429 $240,000 2,128 sq. ft. 7,841 sq. ft. $113
2018-07-27 Single Family Traditional 19735 Raccoon Hollow Way Cypress, TX 77433 $465,900 3,398 sq. ft. 7,841 sq. ft. $137
2018-07-27 Single Family Traditional 14747 Autumn Glen Court Cypress, TX 77429 $217,500 2,171 sq. ft. 6,534 sq. ft. $100
2018-07-27 Single Family Other Style 13638 Kluge Corner Lane Cypress, TX 77429 $674,900 5,298 sq. ft. 22,216 sq. ft. $127
2018-07-27 Single Family Contemporary/Modern 19511 Cliff Sage Court Cypress, TX 77433 $219,000 3,504 sq. ft. 6,098 sq. ft. $62
2018-07-27 Single Family Traditional 18410 Arbormont Drive Cypress, TX 77429 $215,000 2,788 sq. ft. 5,663 sq. ft. $77
2018-07-27 Single Family Traditional 13907 Wetherfield Lane Cypress, TX 77429 $349,900 3,176 sq. ft. 10,454 sq. ft. $110
2018-07-27 Single Family Ranch 15626 Manning Drive Cypress, TX 77429 $252,000 1,679 sq. ft. 20,909 sq. ft. $150
2018-07-27 Single Family Traditional 19515 Asher Meadows Drive Cypress, TX 77433 $515,000 4,116 sq. ft. 10,890 sq. ft. $125
2018-07-27 Single Family Traditional 17914 Banbury Green Lane Cypress, TX 77429 $253,000 2,100 sq. ft. 6,970 sq. ft. $120
2018-07-27 Single Family Traditional 7702 Galleon Field Lane Cypress, TX 77433 $146,500 1,450 sq. ft. 6,534 sq. ft. $101
2018-07-27 Single Family Traditional 7814 Crestbrook Manor Lane Cypress, TX 77433 $185,000 1,893 sq. ft. 5,227 sq. ft. $98
2018-07-27 Single Family Traditional 15026 Red Cedar Bluff Lane Cypress, TX 77433 $210,000 1,832 sq. ft. 6,098 sq. ft. $115
2018-07-27 Single Family Traditional 13810 San Saba Canyon Lane Cypress, TX 77429 $399,900 2,990 sq. ft. 10,019 sq. ft. $134
2018-07-27 Single Family Traditional 19314 Egret Wood Way Cypress, TX 77429 $209,990 2,092 sq. ft. 6,098 sq. ft. $100
2018-07-27 Single Family Traditional 13411 Nevermore Drive Cypress, TX 77429 $189,900 1,752 sq. ft. 7,841 sq. ft. $108
2018-07-27 Single Family Traditional 18703 San Saba Creek Circle Cypress, TX 77433 $649,500 5,702 sq. ft. 13,939 sq. ft. $114
2018-07-26 Single Family Traditional 15203 Flameleaf Gardens Court Cypress, TX 77433 $310,000 2,595 sq. ft. 19,602 sq. ft. $119
2018-07-26 Single Family Traditional 13503 Oak Hollow Drive Cypress, TX 77429 $199,900 2,202 sq. ft. 34,848 sq. ft. $91
2018-07-26 Single Family Traditional 19815 Pence Hills Court Cypress, TX 77433 $300,000 2,615 sq. ft. 6,534 sq. ft. $115
2018-07-26 Single Family Traditional 18215 Rexine Lane Cypress, TX 77433 $189,000 2,015 sq. ft. 4,792 sq. ft. $94
2018-07-26 Single Family Traditional 18802 Sawyer Run Lane Cypress, TX 77429 $257,500 2,857 sq. ft. 6,534 sq. ft. $90
2018-07-26 Single Family Traditional 20119 Jasper Oaks Drive Cypress, TX 77433 $218,000 2,432 sq. ft. 5,663 sq. ft. $90
2018-07-26 Single Family Traditional 21123 Begonia Creek Court Cypress, TX 77433 $595,000 4,279 sq. ft. 20,909 sq. ft. $139
2018-07-26 Single Family Traditional 20707 Fairhaven Crossing Drive Cypress, TX 77433 $750,000 5,194 sq. ft. 25,700 sq. ft. $144
2018-07-26 Single Family Traditional 12718 Devotion Lane Cypress, TX 77429 $419,040 4,194 sq. ft. $100
2018-07-26 Single Family Traditional 14226 Darby Springs Way Cypress, TX 77429 $229,000 3,215 sq. ft. 6,534 sq. ft. $71
2018-07-26 Single Family Traditional 20919 Bristol Meadow Lane Cypress, TX 77433 $273,749 2,032 sq. ft. $135
2018-07-26 Single Family Traditional 20906 Bristol Meadow Lane Cypress, TX 77433 $269,503 1,855 sq. ft. $145
2018-07-26 Single Family Ranch 12603 Oakfield Drive Cypress, TX 77429 $80,000 1,537 sq. ft. 24,394 sq. ft. $52
2018-07-26 Single Family Traditional 20923 Bristol Meadow Lane Cypress, TX 77433 $279,519 1,865 sq. ft. $150
2018-07-26 Single Family Traditional 20822 Bristol Meadow Lane Cypress, TX 77433 $368,446 2,640 sq. ft. $140
2018-07-26 Single Family Traditional 14902 Gray Heron Court Cypress, TX 77433 $439,900 3,114 sq. ft. 14,375 sq. ft. $141
2018-07-26 Single Family Traditional 19423 Dawntreader Drive Cypress, TX 77429 $215,000 2,776 sq. ft. 6,098 sq. ft. $77
2018-07-26 Single Family Traditional 13110 Dogwood Glen Court Cypress, TX 77429 $260,000 2,685 sq. ft. 8,276 sq. ft. $97
2018-07-26 Single Family Traditional 7834 Pasture Spring Lane Cypress, TX 77433 $184,900 1,900 sq. ft. 4,356 sq. ft. $97
2018-07-26 Single Family Traditional 13515 King Circle Cypress, TX 77429 $259,000 2,313 sq. ft. 20,038 sq. ft. $112
2018-07-26 Single Family French 13715 Oak Harbor Manor Cypress, TX 77429 $790,000 4,841 sq. ft. 24,394 sq. ft. $163
2018-07-26 Single Family Traditional 18327 Farriswood Court Cypress, TX 77433 $185,000 1,803 sq. ft. 6,534 sq. ft. $103
2018-07-26 Single Family Traditional 20626 Barngate Meadow Lane Cypress, TX 77433 $179,800 1,524 sq. ft. $118
2018-07-26 Single Family Traditional 18731 Waketon Drive Cypress, TX 77433 $329,000 2,254 sq. ft. 7,405 sq. ft. $146
2018-07-26 Single Family Ranch 7607 Hillsdale Park Court Cypress, TX 77433 $150,000 1,455 sq. ft. 5,227 sq. ft. $103
2018-07-26 Single Family Traditional 14906 Cypress Meade Court Cypress, TX 77429 $204,900 1,950 sq. ft. 17,860 sq. ft. $105
2018-07-25 Single Family Traditional 16114 Lake Amistad Place Cypress, TX 77433 $320,490 2,841 sq. ft. $113
2018-07-25 Single Family Traditional 19219 W Austin Bayou Cypress, TX 77433 $849,900 4,314 sq. ft. 19,602 sq. ft. $197
2018-07-25 Single Family Traditional 21114 Kelsey Creek Trail Cypress, TX 77433 $595,000 3,990 sq. ft. 14,375 sq. ft. $149
2018-07-25 Single Family Georgian; Ranch 9238 Lakeshores Lagoon Cypress, TX 77433 $329,000 2,432 sq. ft. 8,276 sq. ft. $135
2018-07-25 Single Family Mediterranean 19110 South Frio River Dr Cypress, TX 77433 $869,900 5,208 sq. ft. $167
2018-07-25 Single Family Traditional 16818 Seminole Ridge Drive Cypress, TX 77433 $269,900 2,267 sq. ft. 6,098 sq. ft. $119
2018-07-25 Single Family Traditional 18402 Lodgepole Pine Street Cypress, TX 77429 $230,000 2,263 sq. ft. 6,098 sq. ft. $102
2018-07-25 Single Family Ranch 19950 Rojo Rock Lane Cypress, TX 77433 $280,000 2,341 sq. ft. 6,970 sq. ft. $120
2018-07-25 Single Family Contemporary/Modern 18326 Elizabeth Shore Loop Cypress, TX 77433 $329,000 2,751 sq. ft. 6,098 sq. ft. $120
2018-07-25 Single Family Traditional 20534 Mauve Orchid Way Cypress, TX 77433 $225,000 2,185 sq. ft. 6,098 sq. ft. $103
2018-07-25 Single Family Contemporary/Modern 11406 Lake Louise Court Cypress, TX 77433 $665,000 6,263 sq. ft. 15,682 sq. ft. $106
2018-07-25 Single Family Traditional 18018 Rock Shelf Drive Cypress, TX 77429 $335,000 3,325 sq. ft. 7,405 sq. ft. $101
2018-07-25 Single Family Traditional 14746 Emerald Cypress Lane Cypress, TX 77429 $225,900 2,295 sq. ft. 5,663 sq. ft. $98
2018-07-24 Single Family Traditional 10503 Grace Hollow Drive Cypress, TX 77433 $490,000 4,183 sq. ft. 10,019 sq. ft. $117
2018-07-24 Single Family Traditional 17306 Waterfall Swift Way Cypress, TX 77433 $399,990 3,906 sq. ft. 9,583 sq. ft. $102
2018-07-24 Single Family Traditional 19511 Gentle Creek Way Cypress, TX 77429 $217,000 2,564 sq. ft. 4,792 sq. ft. $85
2018-07-24 Single Family Traditional 16611 Azure Mist Court Cypress, TX 77433 $395,000 3,407 sq. ft. 10,019 sq. ft. $116
2018-07-24 Single Family Contemporary/Modern; Traditional 19014 Feather Lance Drive Cypress, TX 77433 $165,000 2,139 sq. ft. 8,276 sq. ft. $77
2018-07-24 Single Family Traditional 12506 Brook Cove Drive Cypress, TX 77433 $435,000 3,798 sq. ft. 9,583 sq. ft. $115
2018-07-24 Single Family Ranch 10029 Easton Sky Lane Cypress, TX 77433 $536,000 4,339 sq. ft. 9,148 sq. ft. $124
2018-07-24 Single Family Ranch 7307 Village Lake Drive Cypress, TX 77433 $128,900 1,355 sq. ft. 7,405 sq. ft. $95
2018-07-24 Single Family Traditional 16622 Wolf Pass Drive Cypress, TX 77433 $468,180 3,315 sq. ft. 10,890 sq. ft. $141
2018-07-24 Single Family Traditional 18715 Fox Kestrel Trail Cypress, TX 77429 $329,900 2,985 sq. ft. 6,970 sq. ft. $111
2018-07-24 Single Family English; Ranch 16134 Barklea Road Cypress, TX 77429 $600,000 2,910 sq. ft. 48,352 sq. ft. $206
2018-07-24 Single Family Traditional 19730 Hubbard Creek Court Cypress, TX 77433 $379,999 3,162 sq. ft. 8,712 sq. ft. $120
2018-07-24 Single Family Traditional 12610 Chriswood Drive Cypress, TX 77429 $365,000 3,530 sq. ft. 30,492 sq. ft. $103
2018-07-24 Single Family Contemporary/Modern 14507 Cypress Links Trails Corner Cypress, TX 77429 $476,000 3,650 sq. ft. 10,890 sq. ft. $130
2018-07-24 Single Family Traditional 16902 Savannah Park Drive Cypress, TX 77429 $200,000 1,696 sq. ft. 5,663 sq. ft. $118
2018-07-24 Single Family Mediterranean 13803 Nueces Springs Lane Cypress, TX 77429 $699,000 5,740 sq. ft. 21,780 sq. ft. $122
2018-07-23 Single Family Traditional 7403 Hollow Field Court Cypress, TX 77433 $209,900 2,185 sq. ft. 7,405 sq. ft. $96
2018-07-23 Single Family Traditional 13726 Leon Springs Lane Cypress, TX 77429 $849,900 5,581 sq. ft. 26,572 sq. ft. $152
2018-07-23 Single Family Traditional 18522 Lodgepole Pine Street Cypress, TX 77429 $249,998 3,390 sq. ft. 5,663 sq. ft. $74
2018-07-23 Single Family Traditional 16411 Shumard Run Lane Cypress, TX 77433 $512,947 4,269 sq. ft. $120
2018-07-23 Single Family Traditional 10511 Texas Sage Way Cypress, TX 77433 $344,900 2,997 sq. ft. 8,276 sq. ft. $115
2018-07-23 Single Family Traditional 11819 Trinity Bluff Ln Cypress, TX 77433 $368,178 2,712 sq. ft. 8,276 sq. ft. $136
2018-07-23 Single Family Traditional 13102 Bristol Berry Drive Cypress, TX 77429 $345,000 3,384 sq. ft. 7,841 sq. ft. $102
2018-07-23 Single Family Traditional 15039 Appian Oak Street Cypress, TX 77429 $325,990 3,523 sq. ft. $93
2018-07-22 Single Family Traditional 18211 Mouontain Arbor Court Cypress, TX 77433 $339,957 2,526 sq. ft. 6,970 sq. ft. $135
2018-07-22 Single Family Traditional 12603 Whistling Wind Lane Cypress, TX 77429 $199,990 2,343 sq. ft. 8,712 sq. ft. $85
2018-07-22 Single Family Traditional 20134 Harvest Landing Lane Cypress, TX 77433 $195,000 2,548 sq. ft. 6,098 sq. ft. $77
2018-07-22 Single Family Traditional 20518 Glademill Court Cypress, TX 77433 $249,000 3,359 sq. ft. 6,970 sq. ft. $74
2018-07-21 Single Family Traditional 7918 Tawny Bluff Court Cypress, TX 77433 $170,000 2,372 sq. ft. 5,663 sq. ft. $72
2018-07-21 Single Family Traditional 13223 Water Oak Park Circle Cypress, TX 77429 $350,000 3,567 sq. ft. 11,326 sq. ft. $98
2018-07-21 Single Family Traditional 16302 Judge Bry Road Cypress, TX 77429 $361,000 2,972 sq. ft. 8,276 sq. ft. $121
2018-07-21 Single Family Traditional 18122 Alora Springs Trace Cypress, TX 77433 $283,581 2,315 sq. ft. 6,098 sq. ft. $122
2018-07-21 Single Family Traditional 18030 Ivory Crossing Lane Cypress, TX 77433 $249,000 3,027 sq. ft. 7,841 sq. ft. $82
2018-07-21 Single Family Traditional 20010 Rustic Lake Lane Cypress, TX 77433 $179,900 2,274 sq. ft. 6,534 sq. ft. $79
2018-07-21 Single Family Traditional 12227 Old Huffmeister Road Cypress, TX 77429 $595,000 6,188 sq. ft. 43,560 sq. ft. $96
2018-07-21 Single Family Traditional 18207 Mountain Arbor Court Cypress, TX 77433 $309,679 2,253 sq. ft. 6,534 sq. ft. $137
2018-07-21 Single Family Traditional 16111 Ormonde Crossing Drive Cypress, TX 77429 $425,000 4,237 sq. ft. 11,326 sq. ft. $100
2018-07-21 Single Family Traditional 20311 Fairfield Trace Drive Cypress, TX 77433 $230,000 2,142 sq. ft. 7,841 sq. ft. $107
2018-07-21 Single Family Traditional 16023 Stablepoint Lane Cypress, TX 77429 $310,000 3,177 sq. ft. 8,276 sq. ft. $98
2018-07-20 Single Family Traditional 15403 Redbud Dale Court Cypress, TX 77429 $289,000 3,558 sq. ft. 5,663 sq. ft. $81
2018-07-20 Single Family Traditional 20719 Keegans Ledge Lane Cypress, TX 77433 $195,000 1,873 sq. ft. 5,663 sq. ft. $104
2018-07-20 Single Family Ranch 11307 Hillside Knoll Cypress, TX 77433 $521,900 3,339 sq. ft. $156
2018-07-20 Single Family Traditional 19834 Kelsey Gap Court Cypress, TX 77433 $339,000 3,256 sq. ft. 6,534 sq. ft. $104
2018-07-20 Single Family Traditional 14415 Twisted Canyon Drive Cypress, TX 77429 $240,000 2,336 sq. ft. 8,712 sq. ft. $103
2018-07-20 Single Family Traditional 20506 Baden Hollow Lane Cypress, TX 77433 $167,500 2,129 sq. ft. 5,227 sq. ft. $79
2018-07-20 Single Family Traditional 7350 Village Lake Drive Cypress, TX 77433 $166,990 1,890 sq. ft. 4,356 sq. ft. $88
2018-07-20 Single Family Traditional 19914 Appleton Hills Trail Cypress, TX 77433 $374,900 3,068 sq. ft. 6,970 sq. ft. $122
2018-07-20 Single Family Traditional 19922 Appleton Hills Trail Cypress, TX 77433 $368,900 2,949 sq. ft. 7,405 sq. ft. $125
2018-07-20 Single Family Traditional 26311 Watercypress Court Cypress, TX 77433 $475,000 3,897 sq. ft. 13,504 sq. ft. $122
2018-07-20 Single Family Traditional 15802 Lavender Run Drive Cypress, TX 77429 $454,900 3,905 sq. ft. 13,068 sq. ft. $116
2018-07-20 Single Family Traditional 21503 Firemist Court Cypress, TX 77433 $430,000 4,403 sq. ft. 10,454 sq. ft. $98
2018-07-20 Single Family Traditional 22019 Twinkle Sky Court Cypress, TX 77433 $305,000 2,654 sq. ft. 10,890 sq. ft. $115
2018-07-20 Single Family Traditional 9423 Pecos Pass Court Cypress, TX 77433 $359,000 2,517 sq. ft. 10,454 sq. ft. $143
2018-07-20 Single Family Traditional 10407 Sandy Cypress Court Cypress, TX 77433 $399,900 3,430 sq. ft. 16,553 sq. ft. $117
2018-07-20 Single Family Traditional 19907 Appleton Hills Trail Cypress, TX 77433 $329,900 2,504 sq. ft. 7,405 sq. ft. $132
2018-07-20 Single Family Traditional 16023 Closewood Terrace Drive Cypress, TX 77429 $349,000 3,283 sq. ft. 7,841 sq. ft. $106
2018-07-20 Single Family Traditional 20718 Grayden Drive Cypress, TX 77433 $300,000 2,803 sq. ft. 8,712 sq. ft. $107